Time;durP1;ratioP1;P1;durP2;ratioP2;P2;SDS_P1;SDS_P2;PMS_P1;PMS_P2;Temp;Humidity;BMP_temperature;BMP_pressure;BME280_temperature;BME280_humidity;BME280_pressure;Samples;Min_cycle;Max_cycle;Signal;HPM_P1;HPM_P2
2022/08/29 00:01:46;;;;;;;3.60;1.60;;;18.80;99.90;;;;;;4990206;28;20037;-77
2022/08/29 00:04:13;;;;;;;1.60;1.50;;;18.80;99.90;;;;;;5004739;28;20145;-77
2022/08/29 00:06:39;;;;;;;0.93;0.90;;;18.80;99.90;;;;;;5009447;28;20402;-77
2022/08/29 00:09:05;;;;;;;0.32;0.32;;;18.70;99.90;;;;;;5010642;28;20038;-76
2022/08/29 00:11:30;;;;;;;1.60;1.50;;;18.80;99.90;;;;;;4990250;28;20129;-77
2022/08/29 00:13:56;;;;;;;0.30;0.30;;;18.80;99.90;;;;;;4991221;28;20083;-77
2022/08/29 00:16:21;;;;;;;0.70;0.70;;;18.80;99.90;;;;;;4997324;28;20457;-77
2022/08/29 00:18:47;;;;;;;0.83;0.83;;;18.90;99.90;;;;;;5009217;28;20034;-77
2022/08/29 00:21:13;;;;;;;3.43;2.00;;;18.80;99.90;;;;;;5009138;28;20026;-77
2022/08/29 00:23:38;;;;;;;0.87;0.87;;;18.90;99.90;;;;;;5010816;28;20469;-77
2022/08/29 00:26:04;;;;;;;0.90;0.87;;;18.80;99.90;;;;;;4996518;28;20022;-77
2022/08/29 00:28:30;;;;;;;0.63;0.63;;;18.90;99.90;;;;;;4991824;28;20033;-77
2022/08/29 00:30:56;;;;;;;0.40;0.40;;;18.90;99.90;;;;;;5003862;28;20038;-76
2022/08/29 00:33:22;;;;;;;0.40;0.40;;;19.00;99.90;;;;;;5010169;28;20397;-76
2022/08/29 00:35:47;;;;;;;0.40;0.40;;;18.90;99.90;;;;;;5010628;28;20026;-76
2022/08/29 00:38:15;;;;;;;3.50;1.87;;;18.90;99.90;;;;;;5009190;28;20034;-76
2022/08/29 00:40:46;;;;;;;0.93;0.90;;;18.90;99.90;;;;;;5008997;28;20091;-76
2022/08/29 00:43:11;;;;;;;11.50;3.50;;;18.90;99.90;;;;;;5010666;28;20030;-77
2022/08/29 00:45:44;;;;;;;1.07;1.00;;;18.90;99.90;;;;;;5009005;28;20522;-77
2022/08/29 00:48:13;;;;;;;0.30;0.30;;;18.90;99.90;;;;;;5010815;28;20034;-76
2022/08/29 00:50:54;;;;;;;0.77;0.77;;;18.90;99.90;;;;;;4992136;28;20506;-77
2022/08/29 00:53:28;;;;;;;2.85;0.80;;;19.10;99.90;;;;;;4991029;28;20038;-77
2022/08/29 00:55:53;;;;;;;0.82;0.82;;;19.10;99.90;;;;;;4990892;28;20042;-77
2022/08/29 00:58:36;;;;;;;0.60;0.60;;;19.20;99.90;;;;;;4989276;28;20057;-77
2022/08/29 01:01:05;;;;;;;0.50;0.50;;;19.20;99.90;;;;;;5006310;28;20055;-77
2022/08/29 01:03:33;;;;;;;0.65;0.65;;;19.30;99.90;;;;;;5010102;28;20456;-77
2022/08/29 01:06:01;;;;;;;1.23;1.13;;;19.40;99.90;;;;;;5009108;28;20439;-77
2022/08/29 01:08:27;;;;;;;0.50;0.50;;;19.50;99.90;;;;;;5009208;28;20106;-77
2022/08/29 01:13:41;;;;;;;1.30;1.08;;;19.50;99.90;;;;;;5010278;28;20516;-77
2022/08/29 01:16:07;;;;;;;0.50;0.50;;;19.50;99.90;;;;;;5008607;28;20036;-77
2022/08/29 01:18:35;;;;;;;0.60;0.60;;;19.40;99.90;;;;;;5006687;28;20605;-77
2022/08/29 01:21:27;;;;;;;0.32;0.32;;;19.50;99.90;;;;;;5005155;28;20037;-77
2022/08/29 01:24:25;;;;;;;1.17;1.02;;;19.50;99.90;;;;;;5002134;28;20432;-77
2022/08/29 01:26:52;;;;;;;0.30;0.30;;;19.50;99.90;;;;;;4990763;28;20046;-77
2022/08/29 01:29:17;;;;;;;0.70;0.70;;;19.60;99.90;;;;;;4992737;28;20034;-77
2022/08/29 01:31:48;;;;;;;0.37;0.37;;;19.60;99.90;;;;;;5009614;28;20032;-77
2022/08/29 01:34:15;;;;;;;1.05;0.73;;;19.60;99.90;;;;;;5009142;28;20037;-77
2022/08/29 01:36:54;;;;;;;1.13;0.88;;;19.60;99.90;;;;;;5009948;28;20536;-77
2022/08/29 01:39:25;;;;;;;0.68;0.68;;;19.50;99.90;;;;;;5007874;28;20097;-77
2022/08/29 01:41:51;;;;;;;0.82;0.82;;;19.50;99.90;;;;;;5008784;28;20104;-77
2022/08/29 01:44:20;;;;;;;0.70;0.70;;;19.50;99.90;;;;;;5009831;28;20026;-77
2022/08/29 01:46:48;;;;;;;0.55;0.55;;;19.60;99.90;;;;;;5009350;28;20034;-77
2022/08/29 01:49:15;;;;;;;1.10;1.10;;;19.60;99.90;;;;;;4999712;28;20121;-77
2022/08/29 01:51:41;;;;;;;0.82;0.80;;;19.70;99.90;;;;;;4989427;28;20073;-77
2022/08/29 01:54:09;;;;;;;0.60;0.60;;;19.80;99.90;;;;;;4989889;28;20035;-77
2022/08/29 01:56:41;;;;;;;0.30;0.30;;;19.90;99.90;;;;;;4989049;28;20054;-78
2022/08/29 01:59:12;;;;;;;0.32;0.32;;;20.00;99.90;;;;;;5008616;28;20317;-78
2022/08/29 02:01:42;;;;;;;0.57;0.57;;;20.10;99.90;;;;;;5007802;28;20034;-77
2022/08/29 02:04:08;;;;;;;0.32;0.32;;;20.10;99.90;;;;;;5008823;28;20026;-76
2022/08/29 02:06:34;;;;;;;0.55;0.55;;;20.10;99.90;;;;;;5007607;28;20037;-76
2022/08/29 02:09:00;;;;;;;0.38;0.38;;;20.10;99.90;;;;;;4989965;28;20421;-76
2022/08/29 02:11:26;;;;;;;8.70;1.30;;;20.00;99.90;;;;;;4988574;28;20026;-77
2022/08/29 02:13:56;;;;;;;3.53;1.95;;;20.00;99.90;;;;;;4988900;28;20058;-77
2022/08/29 02:16:23;;;;;;;0.75;0.75;;;20.10;99.90;;;;;;4989973;28;20056;-77
2022/08/29 02:18:49;;;;;;;0.55;0.55;;;20.10;99.90;;;;;;4987391;28;20031;-77
2022/08/29 02:21:18;;;;;;;2.50;2.30;;;20.10;99.90;;;;;;4987320;28;20464;-76
2022/08/29 02:23:48;;;;;;;3.63;1.60;;;20.00;99.90;;;;;;5002572;28;20038;-77
2022/08/29 02:26:15;;;;;;;0.68;0.68;;;20.10;99.90;;;;;;5006983;28;20531;-76
2022/08/29 02:28:41;;;;;;;;;;;20.10;99.90;;;;;;5008811;28;20053;-77
2022/08/29 02:31:07;;;;;;;1.25;1.15;;;20.10;99.90;;;;;;5002915;28;20305;-77
2022/08/29 02:33:34;;;;;;;0.30;0.30;;;20.10;99.90;;;;;;4988416;28;20046;-77
2022/08/29 02:36:01;;;;;;;1.40;1.35;;;20.10;99.90;;;;;;4987181;28;20034;-76
2022/08/29 02:38:27;;;;;;;0.38;0.38;;;20.10;99.90;;;;;;4989730;28;20478;-77
2022/08/29 02:40:53;;;;;;;7.03;3.92;;;20.00;99.90;;;;;;4989101;28;20057;-77
2022/08/29 02:43:20;;;;;;;0.52;0.52;;;20.00;99.90;;;;;;4988946;28;20469;-76
2022/08/29 02:45:47;;;;;;;1.05;0.65;;;20.00;99.90;;;;;;4989002;28;20474;-77
2022/08/29 02:48:14;;;;;;;0.50;0.50;;;20.00;99.90;;;;;;5005690;28;20053;-77
2022/08/29 02:50:42;;;;;;;0.93;0.90;;;20.00;99.90;;;;;;5008433;28;20028;-77
2022/08/29 02:53:09;;;;;;;0.70;0.70;;;19.90;99.90;;;;;;5006676;28;20103;-76
2022/08/29 02:55:34;;;;;;;0.82;0.77;;;19.90;99.90;;;;;;4996313;28;20450;-77
2022/08/29 02:58:00;;;;;;;0.60;0.60;;;19.80;99.90;;;;;;5008356;28;20087;-77
2022/08/29 03:00:26;;;;;;;1.03;1.03;;;20.00;99.90;;;;;;5006911;28;20026;-77
2022/08/29 03:02:54;;;;;;;0.52;0.52;;;20.00;99.90;;;;;;4993250;28;20041;-77
2022/08/29 03:05:22;;;;;;;0.50;0.50;;;20.00;99.90;;;;;;4988807;28;20306;-77
2022/08/29 03:07:47;;;;;;;0.40;0.40;;;20.00;99.90;;;;;;4988141;28;20037;-77
2022/08/29 03:10:13;;;;;;;1.53;1.43;;;20.00;99.90;;;;;;4987161;28;20026;-77
2022/08/29 03:12:39;;;;;;;9.40;1.98;;;19.90;99.90;;;;;;4988323;28;20367;-77
2022/08/29 03:15:06;;;;;;;2.03;1.43;;;20.00;99.90;;;;;;4987041;28;20030;-77
2022/08/29 03:17:33;;;;;;;0.73;0.73;;;20.00;99.90;;;;;;4996976;28;20057;-77
2022/08/29 03:19:58;;;;;;;0.40;0.40;;;20.00;99.90;;;;;;5008107;28;20578;-77
2022/08/29 03:22:25;;;;;;;0.60;0.60;;;20.00;99.90;;;;;;5008769;28;20030;-77
2022/08/29 03:24:51;;;;;;;0.57;0.57;;;20.00;99.90;;;;;;4990800;28;20034;-77
2022/08/29 03:27:17;;;;;;;1.43;0.93;;;20.00;99.90;;;;;;4988811;28;20173;-77
2022/08/29 03:29:43;;;;;;;0.88;0.88;;;19.90;99.90;;;;;;4988223;28;20397;-76
2022/08/29 03:32:09;;;;;;;0.40;0.40;;;19.80;99.90;;;;;;4991578;28;20036;-76
2022/08/29 03:34:34;;;;;;;0.40;0.40;;;19.80;99.90;;;;;;5007716;28;20033;-76
2022/08/29 03:37:00;;;;;;;0.37;0.37;;;19.70;99.90;;;;;;5006056;28;20026;-77
2022/08/29 03:39:28;;;;;;;2.10;1.63;;;19.70;99.90;;;;;;5003918;28;20579;-76
2022/08/29 03:41:54;;;;;;;0.32;0.32;;;19.60;99.90;;;;;;4998297;28;20084;-77
2022/08/29 03:44:20;;;;;;;0.75;0.75;;;19.50;99.90;;;;;;4986545;28;20502;-76
2022/08/29 03:46:46;;;;;;;1.33;1.27;;;19.50;99.90;;;;;;4988047;28;20027;-77
2022/08/29 03:49:12;;;;;;;0.40;0.40;;;19.50;99.90;;;;;;5005474;28;20114;-77
2022/08/29 03:51:38;;;;;;;0.30;0.30;;;19.50;99.90;;;;;;5006276;28;20469;-77
2022/08/29 03:54:04;;;;;;;;;;;19.50;99.90;;;;;;5002337;28;20573;-77
2022/08/29 03:56:30;;;;;;;1.08;0.98;;;19.50;99.90;;;;;;4987548;28;19953;-77
2022/08/29 03:58:57;;;;;;;1.15;1.05;;;19.50;99.90;;;;;;4987706;28;20365;-77
2022/08/29 04:01:27;;;;;;;1.45;1.35;;;19.60;99.90;;;;;;4987813;28;20040;-76
2022/08/29 04:03:53;;;;;;;1.73;1.60;;;19.60;99.90;;;;;;4986519;28;20050;-76
2022/08/29 04:06:20;;;;;;;0.70;0.70;;;19.60;99.90;;;;;;4985876;28;20033;-77
2022/08/29 04:08:46;;;;;;;1.27;1.17;;;19.60;99.90;;;;;;4986490;28;20058;-77
2022/08/29 04:11:14;;;;;;;0.40;0.40;;;19.60;99.90;;;;;;4999146;28;20080;-76
2022/08/29 04:13:40;;;;;;;0.73;0.73;;;19.60;99.90;;;;;;4986238;28;20034;-78
2022/08/29 04:16:12;;;;;;;2.33;1.03;;;19.70;99.90;;;;;;4986112;28;20034;-76
2022/08/29 04:18:38;;;;;;;0.55;0.55;;;19.70;99.90;;;;;;4996428;28;20121;-77
2022/08/29 04:21:05;;;;;;;0.73;0.73;;;19.80;99.90;;;;;;5008126;28;20056;-77
2022/08/29 04:23:32;;;;;;;0.30;0.30;;;19.90;99.90;;;;;;5010098;28;20045;-76
2022/08/29 04:25:57;;;;;;;0.47;0.47;;;20.00;99.90;;;;;;4992040;28;20033;-77
2022/08/29 04:28:23;;;;;;;5.97;1.83;;;20.00;99.90;;;;;;4990246;28;20035;-77
2022/08/29 04:30:51;;;;;;;1.40;1.03;;;20.10;99.90;;;;;;4988703;28;20553;-77
2022/08/29 04:33:18;;;;;;;0.57;0.57;;;20.10;99.90;;;;;;4994683;28;20030;-77
2022/08/29 04:35:43;;;;;;;0.30;0.30;;;20.30;99.90;;;;;;5010042;28;20518;-77
2022/08/29 04:38:09;;;;;;;0.40;0.40;;;20.40;99.90;;;;;;5010026;28;20057;-77
2022/08/29 04:40:37;;;;;;;1.10;1.03;;;20.40;99.90;;;;;;4996653;28;20039;-77
2022/08/29 04:43:02;;;;;;;2.72;1.23;;;20.40;99.90;;;;;;4990291;28;20031;-78
2022/08/29 04:45:29;;;;;;;1.17;1.07;;;20.50;99.90;;;;;;4990472;28;20027;-77
2022/08/29 04:47:54;;;;;;;0.80;0.65;;;20.50;99.90;;;;;;4989006;28;20023;-77
2022/08/29 04:50:22;;;;;;;2.53;1.70;;;20.60;99.90;;;;;;5007623;28;21296;-77
2022/08/29 04:52:49;;;;;;;0.30;0.30;;;20.60;99.90;;;;;;5008269;28;20038;-77
2022/08/29 04:55:17;;;;;;;0.43;0.43;;;20.60;99.90;;;;;;5002948;28;20026;-77
2022/08/29 04:57:43;;;;;;;1.42;1.15;;;20.60;99.90;;;;;;4988936;28;20030;-70
2022/08/29 05:00:12;;;;;;;0.30;0.30;;;20.70;99.90;;;;;;4989522;28;20053;-70
2022/08/29 05:02:39;;;;;;;0.43;0.43;;;20.70;99.90;;;;;;4989668;28;20075;-70
2022/08/29 05:05:06;;;;;;;0.63;0.55;;;20.80;99.90;;;;;;4990681;28;20420;-70
2022/08/29 05:07:32;;;;;;;0.45;0.45;;;20.80;99.90;;;;;;4988709;28;20295;-69
2022/08/29 05:10:01;;;;;;;0.30;0.30;;;20.90;99.90;;;;;;4989965;28;20014;-70
2022/08/29 05:12:28;;;;;;;0.55;0.55;;;20.90;99.90;;;;;;5005989;28;20022;-71
2022/08/29 05:14:53;;;;;;;0.60;0.60;;;21.00;99.90;;;;;;5009741;28;20052;-70
2022/08/29 05:17:20;;;;;;;0.40;0.40;;;21.00;99.90;;;;;;5009851;28;20048;-71
2022/08/29 05:19:45;;;;;;;0.77;0.77;;;21.00;99.90;;;;;;4995314;28;20676;-71
2022/08/29 05:22:15;;;;;;;0.50;0.50;;;21.10;99.90;;;;;;4987864;28;20050;-70
2022/08/29 05:24:42;;;;;;;1.75;0.95;;;21.10;99.90;;;;;;4988696;28;20038;-70
2022/08/29 05:27:10;;;;;;;5.50;1.77;;;21.10;99.90;;;;;;5002467;28;20032;-70
2022/08/29 05:29:40;;;;;;;0.55;0.55;;;21.20;99.90;;;;;;4967939;28;20067;-71
2022/08/29 05:32:07;;;;;;;1.40;1.30;;;21.20;99.90;;;;;;4968577;28;20509;-69
2022/08/29 05:34:33;;;;;;;0.65;0.65;;;21.50;99.90;;;;;;4982761;28;20049;-70
2022/08/29 05:37:00;;;;;;;0.50;0.50;;;21.30;99.90;;;;;;5008476;28;20493;-70
2022/08/29 05:39:26;;;;;;;0.95;0.82;;;21.30;99.90;;;;;;5007609;28;20034;-70
2022/08/29 05:41:56;;;;;;;1.57;1.47;;;21.40;99.90;;;;;;4994937;28;20069;-70
2022/08/29 05:44:22;;;;;;;0.40;0.40;;;21.40;99.90;;;;;;4989634;28;20458;-70
2022/08/29 05:46:47;;;;;;;0.37;0.37;;;21.50;99.90;;;;;;4989123;28;20038;-69
2022/08/29 05:49:13;;;;;;;1.27;1.17;;;21.60;99.90;;;;;;4991145;28;20264;-70
2022/08/29 05:51:39;;;;;;;1.13;0.98;;;21.60;99.90;;;;;;5008767;28;20098;-70
2022/08/29 05:54:06;;;;;;;1.13;1.10;;;21.70;99.90;;;;;;5008817;28;20479;-70
2022/08/29 05:56:31;;;;;;;1.13;1.02;;;21.70;99.90;;;;;;5000121;28;20332;-68
2022/08/29 05:58:57;;;;;;;3.40;1.57;;;21.90;99.90;;;;;;4988812;28;20124;-70
2022/08/29 06:01:29;;;;;;;0.60;0.60;;;21.90;99.90;;;;;;4989142;28;20131;-70
2022/08/29 06:03:55;;;;;;;2.67;2.47;;;22.00;99.90;;;;;;4989001;28;20331;-69
2022/08/29 06:06:26;;;;;;;0.75;0.75;;;22.10;99.90;;;;;;5006271;28;20057;-70
2022/08/29 06:08:53;;;;;;;0.52;0.52;;;22.10;99.90;;;;;;4992667;28;20039;-69
2022/08/29 06:11:22;;;;;;;1.70;1.60;;;22.20;99.90;;;;;;4994159;28;20458;-71
2022/08/29 06:13:48;;;;;;;0.60;0.60;;;22.30;99.90;;;;;;5007951;28;20523;-69
2022/08/29 06:16:17;;;;;;;2.83;2.07;;;22.50;99.90;;;;;;5005913;28;20030;-70
2022/08/29 06:18:43;;;;;;;3.03;1.50;;;22.60;99.90;;;;;;4988226;28;20724;-69
2022/08/29 06:21:10;;;;;;;7.10;2.63;;;22.60;99.90;;;;;;4986564;28;20054;-70
2022/08/29 06:23:37;;;;;;;1.40;1.33;;;22.70;99.90;;;;;;4986285;28;20088;-69
2022/08/29 06:26:04;;;;;;;5.60;1.80;;;22.80;99.90;;;;;;4987879;28;20107;-69
2022/08/29 06:28:31;;;;;;;2.05;1.15;;;22.90;99.90;;;;;;4985244;28;20115;-69
2022/08/29 06:31:05;;;;;;;1.48;1.38;;;23.00;99.90;;;;;;4986655;28;20019;-70
2022/08/29 06:33:30;;;;;;;0.73;0.73;;;23.10;99.90;;;;;;4987844;28;20360;-70
2022/08/29 06:35:56;;;;;;;2.47;1.77;;;23.20;99.90;;;;;;4988787;28;20036;-70
2022/08/29 06:38:21;;;;;;;1.27;1.17;;;23.40;99.90;;;;;;4988709;28;20110;-69
2022/08/29 06:40:47;;;;;;;2.67;1.77;;;23.40;99.90;;;;;;4994618;28;20053;-70
2022/08/29 06:43:12;;;;;;;1.77;1.67;;;23.50;99.90;;;;;;5005724;28;20040;-69
2022/08/29 06:45:42;;;;;;;0.93;0.93;;;23.60;99.90;;;;;;5005537;28;20030;-70
2022/08/29 06:48:08;;;;;;;2.47;1.67;;;23.80;99.90;;;;;;4968511;28;20510;-70
2022/08/29 06:50:38;;;;;;;2.30;2.10;;;23.90;99.90;;;;;;4966737;28;20030;-69
2022/08/29 06:53:04;;;;;;;1.27;1.17;;;24.00;99.90;;;;;;4967806;28;20031;-69
2022/08/29 06:55:30;;;;;;;1.08;1.08;;;24.10;99.90;;;;;;4977938;28;20034;-69
2022/08/29 06:57:55;;;;;;;0.83;0.83;;;24.20;99.90;;;;;;4987122;28;20105;-69
2022/08/29 07:00:22;;;;;;;1.87;1.77;;;24.30;99.90;;;;;;4985811;28;20041;-69
2022/08/29 07:02:48;;;;;;;1.50;1.23;;;24.40;99.90;;;;;;4987201;28;20438;-70
2022/08/29 07:05:14;;;;;;;0.68;0.68;;;24.50;99.90;;;;;;4989948;28;20109;-68
2022/08/29 07:07:41;;;;;;;0.93;0.70;;;24.70;99.90;;;;;;5007142;28;20518;-68
2022/08/29 07:10:07;;;;;;;;;;;24.70;99.90;;;;;;5003745;28;20023;-69
2022/08/29 07:12:32;;;;;;;2.40;2.20;;;24.80;99.90;;;;;;4986948;28;19978;-69
2022/08/29 07:14:58;;;;;;;1.33;1.23;;;24.90;99.90;;;;;;4987207;28;20030;-69
2022/08/29 07:17:24;;;;;;;2.93;1.93;;;24.90;99.90;;;;;;4991552;28;20058;-70
2022/08/29 07:19:49;;;;;;;1.53;1.27;;;25.00;99.90;;;;;;4988588;28;20037;-69
2022/08/29 07:22:15;;;;;;;1.83;1.50;;;25.00;99.90;;;;;;4987527;28;20521;-68
2022/08/29 07:24:41;;;;;;;1.42;1.10;;;25.10;99.90;;;;;;4992907;28;20066;-69
2022/08/29 07:27:08;;;;;;;1.50;1.13;;;25.20;99.90;;;;;;5006036;28;20118;-69
2022/08/29 07:29:35;;;;;;;1.65;0.95;;;25.20;99.90;;;;;;5005002;28;20041;-69
2022/08/29 07:32:01;;;;;;;0.90;0.90;;;25.30;99.90;;;;;;5005245;28;20025;-68
2022/08/29 07:34:26;;;;;;;0.82;0.82;;;25.40;99.90;;;;;;5006312;28;20037;-69
2022/08/29 07:36:52;;;;;;;1.43;1.33;;;25.60;99.90;;;;;;4988109;28;20093;-68
2022/08/29 07:39:18;;;;;;;3.37;0.87;;;25.70;99.90;;;;;;4987649;28;20038;-69
2022/08/29 07:41:44;;;;;;;3.20;1.58;;;25.70;99.90;;;;;;4996579;28;20520;-69
2022/08/29 07:44:11;;;;;;;1.98;0.60;;;25.80;99.90;;;;;;4986855;28;20069;-69
2022/08/29 07:46:37;;;;;;;3.38;1.58;;;25.90;99.90;;;;;;4987309;28;20325;-69
2022/08/29 07:49:03;;;;;;;0.63;0.63;;;26.00;99.90;;;;;;4996219;28;20385;-72
2022/08/29 07:51:29;;;;;;;0.70;0.70;;;26.10;99.90;;;;;;5005370;28;20473;-69
2022/08/29 07:53:56;;;;;;;0.93;0.93;;;26.20;99.90;;;;;;5006558;28;20026;-69
2022/08/29 07:56:23;;;;;;;;;;;26.30;99.90;;;;;;4997515;28;20584;-69
2022/08/29 07:58:49;;;;;;;1.13;1.05;;;26.30;99.90;;;;;;5008252;28;19917;-69
2022/08/29 08:01:15;;;;;;;1.15;1.08;;;26.40;99.90;;;;;;5010190;28;20030;-69
2022/08/29 08:03:41;;;;;;;2.60;1.52;;;26.40;99.90;;;;;;5005078;28;20038;-69
2022/08/29 08:06:08;;;;;;;6.70;1.38;;;26.50;99.90;;;;;;4990274;28;20549;-69
2022/08/29 08:08:34;;;;;;;2.20;1.60;;;26.60;99.90;;;;;;4990030;28;20030;-68
2022/08/29 08:11:02;;;;;;;1.35;1.25;;;26.80;99.90;;;;;;5000460;28;20355;-69
2022/08/29 08:13:27;;;;;;;0.88;0.82;;;27.00;99.90;;;;;;5009448;28;20042;-70
2022/08/29 08:15:54;;;;;;;2.03;1.43;;;27.10;99.90;;;;;;5009761;28;20075;-69
2022/08/29 08:18:20;;;;;;;1.10;1.02;;;27.20;99.90;;;;;;5009100;28;20037;-69
2022/08/29 08:20:47;;;;;;;;;;;27.40;99.90;;;;;;4990520;28;20038;-69
2022/08/29 08:23:16;;;;;;;1.10;1.00;;;27.50;99.90;;;;;;4989749;28;19976;-68
2022/08/29 08:25:43;;;;;;;2.25;1.35;;;27.60;99.90;;;;;;4982603;28;20026;-69
2022/08/29 08:28:10;;;;;;;1.08;0.98;;;27.60;99.00;;;;;;4971172;28;20045;-69
2022/08/29 08:30:36;;;;;;;2.22;1.80;;;27.70;98.50;;;;;;4989775;28;20438;-68
2022/08/29 08:33:02;;;;;;;6.25;2.35;;;27.70;98.70;;;;;;4989554;28;20058;-69
2022/08/29 08:35:28;;;;;;;1.63;1.53;;;27.90;98.80;;;;;;4974514;28;20062;-69
2022/08/29 08:37:53;;;;;;;2.15;1.40;;;28.00;98.10;;;;;;4968864;28;20531;-70
2022/08/29 08:40:26;;;;;;;1.27;1.17;;;28.20;98.40;;;;;;4970441;28;20414;-69
2022/08/29 08:42:59;;;;;;;1.00;1.00;;;28.40;97.10;;;;;;4970110;28;20038;-69
2022/08/29 08:45:32;;;;;;;1.70;1.40;;;28.50;97.10;;;;;;4969967;28;20034;-70
2022/08/29 08:48:12;;;;;;;1.80;1.13;;;28.60;96.70;;;;;;4975875;28;20102;-69
2022/08/29 08:51:05;;;;;;;1.02;0.93;;;28.90;96.40;;;;;;4987513;28;20543;-69
2022/08/29 08:53:38;;;;;;;1.00;1.00;;;29.20;97.00;;;;;;4988852;28;20481;-70
2022/08/29 08:56:21;;;;;;;0.98;0.93;;;29.60;96.30;;;;;;4986917;28;20121;-69
2022/08/29 08:58:46;;;;;;;1.65;1.05;;;29.90;95.70;;;;;;4969724;28;20121;-70
2022/08/29 09:01:17;;;;;;;1.15;1.10;;;30.00;94.90;;;;;;4983553;28;20441;-69
2022/08/29 09:04:14;;;;;;;1.65;1.55;;;30.10;94.00;;;;;;4989078;28;20046;-69
2022/08/29 09:07:08;;;;;;;0.60;0.53;;;30.30;93.80;;;;;;4988083;28;20018;-70
2022/08/29 09:09:57;;;;;;;0.82;0.82;;;30.50;92.20;;;;;;4986765;28;20131;-70
2022/08/29 09:12:37;;;;;;;2.92;2.05;;;30.60;92.10;;;;;;4986050;28;20026;-69
2022/08/29 09:15:09;;;;;;;1.67;1.23;;;30.70;92.20;;;;;;4988712;28;20063;-70
2022/08/29 09:17:40;;;;;;;0.40;0.40;;;30.80;92.00;;;;;;4988762;28;20449;-68
2022/08/29 09:20:16;;;;;;;0.95;0.90;;;30.90;90.60;;;;;;4971401;28;20062;-69
2022/08/29 09:22:48;;;;;;;2.67;2.47;;;30.80;90.30;;;;;;4968433;28;20035;-69
2022/08/29 09:25:14;;;;;;;2.20;1.00;;;30.80;88.20;;;;;;4970120;28;20065;-70
2022/08/29 09:27:40;;;;;;;1.88;1.40;;;30.70;88.30;;;;;;4969474;28;20027;-69
2022/08/29 09:30:14;;;;;;;2.05;1.77;;;30.60;88.00;;;;;;4969897;28;20085;-69
2022/08/29 09:33:03;;;;;;;1.67;0.70;;;30.50;86.00;;;;;;4969455;28;20046;-69
2022/08/29 09:35:45;;;;;;;0.73;0.70;;;30.60;87.10;;;;;;4986592;28;20036;-70
2022/08/29 09:38:17;;;;;;;0.80;0.68;;;30.70;84.10;;;;;;4987453;28;20050;-70
2022/08/29 09:41:06;;;;;;;0.65;0.65;;;30.50;84.60;;;;;;4986947;28;20054;-69
2022/08/29 09:43:38;;;;;;;10.63;1.23;;;30.40;85.20;;;;;;4988500;28;20026;-68
2022/08/29 09:46:10;;;;;;;0.68;0.68;;;30.30;85.50;;;;;;4986492;28;20128;-68
2022/08/29 09:48:41;;;;;;;0.52;0.52;;;30.30;84.10;;;;;;4988555;28;20077;-69
2022/08/29 09:51:09;;;;;;;0.85;0.85;;;30.30;83.40;;;;;;4988159;28;20391;-69
2022/08/29 09:53:35;;;;;;;1.10;1.02;;;30.30;80.10;;;;;;4988112;28;20253;-68
2022/08/29 09:56:08;;;;;;;0.85;0.85;;;30.40;79.00;;;;;;4983385;28;20030;-67
2022/08/29 09:58:40;;;;;;;0.47;0.47;;;30.30;79.00;;;;;;4969313;28;20430;-69
2022/08/29 10:01:16;;;;;;;0.73;0.73;;;30.40;78.90;;;;;;4968893;28;20466;-69
2022/08/29 10:03:52;;;;;;;2.35;1.40;;;30.60;79.00;;;;;;4978308;28;20115;-68
2022/08/29 10:06:25;;;;;;;1.58;1.48;;;30.70;78.10;;;;;;4986592;28;20031;-69
2022/08/29 10:09:04;;;;;;;1.60;1.35;;;30.90;77.80;;;;;;4988158;28;20062;-69
2022/08/29 10:11:40;;;;;;;1.20;1.08;;;31.20;76.50;;;;;;4968802;28;20023;-70
2022/08/29 10:14:12;;;;;;;0.57;0.57;;;31.20;74.10;;;;;;4968292;28;20168;-69
2022/08/29 10:16:49;;;;;;;1.15;0.98;;;31.40;74.50;;;;;;4968699;28;20047;-69
2022/08/29 10:19:21;;;;;;;0.45;0.45;;;31.50;73.90;;;;;;4993425;28;20117;-69
2022/08/29 10:22:04;;;;;;;1.35;1.05;;;31.80;74.60;;;;;;5007536;28;20038;-68
2022/08/29 10:24:38;;;;;;;0.63;0.63;;;32.00;72.90;;;;;;5004238;28;20038;-68
2022/08/29 10:27:27;;;;;;;0.73;0.70;;;32.20;72.30;;;;;;5004448;28;20050;-69
2022/08/29 10:30:13;;;;;;;1.13;1.05;;;32.40;71.30;;;;;;5005916;28;20389;-70
2022/08/29 10:32:57;;;;;;;0.55;0.55;;;32.60;69.00;;;;;;5007099;28;20339;-69
2022/08/29 10:35:42;;;;;;;1.52;1.05;;;32.50;68.90;;;;;;4987646;28;20487;-68
2022/08/29 10:38:21;;;;;;;1.55;0.68;;;32.70;69.40;;;;;;4987852;28;20058;-69
2022/08/29 10:40:53;;;;;;;0.65;0.43;;;32.80;68.70;;;;;;4997526;28;20145;-69
2022/08/29 10:43:45;;;;;;;1.35;1.23;;;32.90;68.40;;;;;;5007082;28;20505;-69
2022/08/29 10:46:31;;;;;;;1.55;1.13;;;33.30;68.40;;;;;;5007421;28;20383;-70
2022/08/29 10:49:05;;;;;;;0.63;0.63;;;33.60;67.00;;;;;;5001129;28;20132;-70
2022/08/29 10:52:15;;;;;;;2.72;0.88;;;33.80;66.70;;;;;;4987760;28;20058;-69
2022/08/29 10:54:58;;;;;;;0.60;0.60;;;34.10;67.70;;;;;;4990352;28;20042;-68
2022/08/29 10:57:29;;;;;;;2.63;1.55;;;34.20;65.50;;;;;;4969991;28;20155;-70
2022/08/29 11:00:05;;;;;;;2.38;1.05;;;34.10;65.60;;;;;;4969738;28;20042;-71
2022/08/29 11:02:45;;;;;;;1.15;1.13;;;34.20;66.50;;;;;;4965108;28;20133;-70
2022/08/29 11:05:32;;;;;;;1.95;1.38;;;34.40;65.50;;;;;;4975628;28;20377;-70
2022/08/29 11:08:06;;;;;;;1.83;1.70;;;34.70;66.00;;;;;;4975736;28;20026;-70
2022/08/29 11:10:39;;;;;;;11.15;1.30;;;34.80;63.60;;;;;;4984779;28;20026;-70
2022/08/29 11:13:27;;;;;;;2.92;1.60;;;34.70;63.10;;;;;;4980619;28;20031;-69
2022/08/29 11:15:59;;;;;;;2.00;1.67;;;34.30;64.60;;;;;;4977162;28;20354;-70
2022/08/29 11:18:37;;;;;;;1.70;0.95;;;34.20;64.20;;;;;;4976406;28;20042;-69
2022/08/29 11:21:32;;;;;;;1.35;0.90;;;34.20;64.70;;;;;;4980402;28;20029;-70
2022/08/29 11:24:01;;;;;;;1.35;1.00;;;34.20;63.70;;;;;;4978951;28;20722;-70
2022/08/29 11:26:47;;;;;;;1.50;1.40;;;34.20;63.20;;;;;;5035004;28;20051;-70
2022/08/29 11:29:40;;;;;;;0.82;0.82;;;34.30;63.90;;;;;;4970389;28;20044;-69
2022/08/29 11:32:38;;;;;;;1.02;0.98;;;34.30;63.10;;;;;;4982984;28;20026;-70
2022/08/29 11:35:09;;;;;;;3.47;1.35;;;34.10;63.50;;;;;;5032492;28;20722;-69
2022/08/29 11:38:12;;;;;;;0.38;0.38;;;33.70;64.00;;;;;;4976899;28;20038;-69
2022/08/29 11:40:56;;;;;;;5.78;1.70;;;33.10;64.00;;;;;;4972167;28;20055;-69
2022/08/29 11:43:27;;;;;;;0.45;0.45;;;32.20;65.80;;;;;;4976395;28;20184;-69
2022/08/29 11:46:01;;;;;;;1.60;1.25;;;31.80;67.00;;;;;;5000185;28;20387;-68
2022/08/29 11:48:33;;;;;;;2.08;1.00;;;31.80;67.40;;;;;;4986217;28;20055;-68
2022/08/29 11:51:18;;;;;;;2.75;1.25;;;32.20;68.20;;;;;;4993639;28;20086;-69
2022/08/29 11:53:44;;;;;;;0.55;0.55;;;32.50;67.00;;;;;;4992778;28;20121;-68
2022/08/29 11:56:13;;;;;;;1.30;1.17;;;32.90;67.30;;;;;;4986670;28;20113;-69
2022/08/29 11:58:42;;;;;;;13.38;0.90;;;33.20;65.70;;;;;;4973051;28;20474;-69
2022/08/29 12:01:31;;;;;;;2.42;1.90;;;33.30;66.20;;;;;;4975239;28;20030;-69
2022/08/29 12:03:57;;;;;;;0.70;0.70;;;33.30;66.00;;;;;;4976442;28;20065;-69
2022/08/29 12:06:51;;;;;;;3.65;1.90;;;33.30;66.30;;;;;;5027198;28;20032;-69
2022/08/29 12:09:46;;;;;;;0.63;0.50;;;33.30;66.20;;;;;;5000642;28;20051;-68
2022/08/29 12:12:34;;;;;;;1.27;0.75;;;33.20;65.50;;;;;;4979154;28;20026;-68
2022/08/29 12:15:00;;;;;;;0.60;0.60;;;33.00;65.70;;;;;;4985203;28;20039;-70
2022/08/29 12:17:26;;;;;;;0.52;0.52;;;32.60;66.60;;;;;;4988499;28;20164;-70
2022/08/29 12:20:08;;;;;;;0.95;0.82;;;32.20;66.50;;;;;;4977797;28;20607;-69
2022/08/29 12:23:04;;;;;;;0.93;0.90;;;32.20;67.50;;;;;;4980086;28;20042;-69
2022/08/29 12:25:42;;;;;;;0.75;0.75;;;32.20;67.40;;;;;;5007223;28;20034;-69
2022/08/29 12:28:16;;;;;;;0.90;0.90;;;32.20;67.50;;;;;;4988486;28;20030;-69
2022/08/29 12:31:05;;;;;;;0.85;0.70;;;32.10;67.90;;;;;;4977557;28;20267;-69
2022/08/29 12:33:59;;;;;;;1.63;1.05;;;32.10;68.20;;;;;;4998476;28;20111;-70
2022/08/29 12:36:55;;;;;;;2.22;1.98;;;32.10;68.30;;;;;;4970468;28;20038;-69
2022/08/29 12:39:46;;;;;;;0.45;0.43;;;32.10;67.70;;;;;;4968757;28;20043;-69
2022/08/29 12:42:17;;;;;;;1.17;0.60;;;31.90;68.30;;;;;;4978631;28;20573;-69
2022/08/29 12:44:56;;;;;;;0.55;0.55;;;31.90;69.30;;;;;;4980669;28;20030;-69
2022/08/29 12:47:34;;;;;;;0.40;0.40;;;31.90;68.30;;;;;;4986440;28;20061;-68
2022/08/29 12:50:17;;;;;;;1.35;1.25;;;31.80;68.30;;;;;;4987728;28;20023;-68
2022/08/29 12:52:55;;;;;;;1.42;1.33;;;31.60;68.70;;;;;;4987050;28;20096;-69
2022/08/29 12:55:25;;;;;;;1.02;1.02;;;31.50;69.10;;;;;;4978342;28;20048;-68
2022/08/29 12:57:51;;;;;;;0.80;0.73;;;31.40;69.00;;;;;;4989339;28;20072;-69
2022/08/29 13:00:28;;;;;;;1.15;1.10;;;31.30;68.90;;;;;;4989262;28;20026;-68
2022/08/29 13:03:07;;;;;;;0.73;0.73;;;31.30;69.40;;;;;;4989195;28;20066;-70
2022/08/29 13:05:36;;;;;;;0.75;0.60;;;31.20;70.70;;;;;;5002711;28;20125;-69
2022/08/29 13:08:11;;;;;;;3.63;1.40;;;31.20;70.80;;;;;;5008667;28;20033;-69
2022/08/29 13:10:40;;;;;;;3.00;1.88;;;31.10;70.60;;;;;;5008277;28;20022;-68